This is the latest recevied weather packets stored in our database for station/object N8DNY-13. If no packets are shown the sender has not sent any weather packets the latest 10 day(s).
| Time | Temp. | Humidity | Pressure | Rain* | Wind** | Luminosity | Snow |
|---|---|---|---|---|---|---|---|
| 1777321479 | 19.44° C | 67% | 1017.7 hPa | 0 mm | - | 171 W/m² | - |
| 1777315108 | 21.11° C | 61% | 1018.5 hPa | 0 mm | - | 465 W/m² | - |
| 1777314198 | 21.11° C | 62% | 1018.7 hPa | 0 mm | - | 513 W/m² | - |
| 1777312378 | 23.33° C | 56% | 1019.3 hPa | 0 mm | - | 524 W/m² | - |
| 1777308738 | 21.11° C | 57% | 1020.8 hPa | 0 mm | - | 737 W/m² | - |
| 1777304208 | 18.33° C | 63% | 1021.6 hPa | 0 mm | - | 492 W/m² | - |
| 1777298738 | 16.11° C | 68% | 1022.7 hPa | 0 mm | - | 405 W/m² | - |
| 1777288748 | 9.44° C | 88% | 1023.3 hPa | 0 mm | - | 23 W/m² | - |
| 1777284198 | 7.78° C | 96% | 1023.2 hPa | 0 mm | - | 0 W/m² | - |
| 1777282406 | 7.78° C | 96% | 1023.6 hPa | 0 mm | - | 0 W/m² | - |
| 1777272449 | 9.44° C | 90% | 1023.5 hPa | 0 mm | - | 0 W/m² | - |
| 1777269710 | 8.89° C | 92% | 1023.9 hPa | 0 mm | - | 0 W/m² | - |
| 1777268808 | 8.89° C | 92% | 1024 hPa | 0 mm | - | 0 W/m² | - |
| 1777267898 | 8.33° C | 91% | 1024 hPa | 0 mm | - | 0 W/m² | - |
| 1777250658 | 9.44° C | 88% | 1024.2 hPa | 0 mm | - | 0 W/m² | - |
| 1777244288 | 12.22° C | 74% | 1024.2 hPa | 0 mm | - | 48 W/m² | - |
| 1777237038 | 13.33° C | 72% | 1024.5 hPa | 0 mm | - | 388 W/m² | - |
| 1777236108 | 13.33° C | 73% | 1024.7 hPa | 0 mm | - | 218 W/m² | - |
| 1777235203 | 13.33° C | 73% | 1024.8 hPa | 0 mm | - | 547 W/m² | - |
| 1777233388 | 12.78° C | 74% | 1024.9 hPa | 0 mm | - | 274 W/m² | - |
| 1777228838 | 12.22° C | 74% | 1025 hPa | 0 mm | - | 366 W/m² | - |
| 1777224303 | 12.22° C | 74% | 1025.2 hPa | 0 mm | - | 301 W/m² | - |
| 1777221588 | 12.22° C | 74% | 1025.1 hPa | 0 mm | - | 331 W/m² | - |
| 1777218874 | 11.11° C | 78% | 1025.4 hPa | 0 mm | - | 206 W/m² | - |
| 1777211628 | 10.56° C | 77% | 1024.7 hPa | 0 mm | - | 198 W/m² | - |
* Rain latest hour (hover to see other rain measurements)
** Current wind speed in m/s (hover to see current wind gust speed)